sensor_id;sensor_type;location;lat;lon;timestamp;P1;P2;P0
59179;PMS7003;44956;52.422;20.818;2023-06-22T00:00:16;52.00;43.00;29.00
59179;PMS7003;44956;52.422;20.818;2023-06-22T00:03:39;49.50;42.25;27.25
59179;PMS7003;44956;52.422;20.818;2023-06-22T00:06:42;42.75;36.25;25.25
59179;PMS7003;44956;52.422;20.818;2023-06-22T00:09:44;42.75;37.50;25.25
59179;PMS7003;44956;52.422;20.818;2023-06-22T00:12:47;43.25;38.00;26.00
59179;PMS7003;44956;52.422;20.818;2023-06-22T00:15:49;41.75;37.25;25.00
59179;PMS7003;44956;52.422;20.818;2023-06-22T00:18:52;38.25;34.75;23.00
59179;PMS7003;44956;52.422;20.818;2023-06-22T00:21:55;43.75;37.00;25.75
59179;PMS7003;44956;52.422;20.818;2023-06-22T00:24:58;43.25;38.25;25.25
59179;PMS7003;44956;52.422;20.818;2023-06-22T00:28:01;46.50;39.00;27.25
59179;PMS7003;44956;52.422;20.818;2023-06-22T00:31:04;51.25;43.25;28.25
59179;PMS7003;44956;52.422;20.818;2023-06-22T00:34:08;46.25;38.75;26.75
59179;PMS7003;44956;52.422;20.818;2023-06-22T00:37:11;47.25;39.75;26.50
59179;PMS7003;44956;52.422;20.818;2023-06-22T00:40:14;43.25;37.00;26.25
59179;PMS7003;44956;52.422;20.818;2023-06-22T00:43:17;45.75;37.25;24.75
59179;PMS7003;44956;52.422;20.818;2023-06-22T00:46:19;46.00;39.25;26.50
59179;PMS7003;44956;52.422;20.818;2023-06-22T00:49:23;46.00;39.00;26.00
59179;PMS7003;44956;52.422;20.818;2023-06-22T00:52:26;47.75;40.00;28.00
59179;PMS7003;44956;52.422;20.818;2023-06-22T00:55:31;44.50;38.75;27.00
59179;PMS7003;44956;52.422;20.818;2023-06-22T00:58:34;50.50;42.00;28.00
59179;PMS7003;44956;52.422;20.818;2023-06-22T01:01:38;46.00;38.00;25.25
59179;PMS7003;44956;52.422;20.818;2023-06-22T01:04:43;39.75;35.00;23.00
59179;PMS7003;44956;52.422;20.818;2023-06-22T01:10:56;50.50;42.00;29.00
59179;PMS7003;44956;52.422;20.818;2023-06-22T01:14:06;50.50;42.75;28.00
59179;PMS7003;44956;52.422;20.818;2023-06-22T01:17:15;46.75;38.00;26.00
59179;PMS7003;44956;52.422;20.818;2023-06-22T01:20:20;46.00;39.00;27.00
59179;PMS7003;44956;52.422;20.818;2023-06-22T01:30:37;49.25;41.00;27.00
59179;PMS7003;44956;52.422;20.818;2023-06-22T01:33:43;48.50;40.25;28.00
59179;PMS7003;44956;52.422;20.818;2023-06-22T01:36:47;51.00;42.25;28.00
59179;PMS7003;44956;52.422;20.818;2023-06-22T01:39:51;32.75;31.25;24.75
59179;PMS7003;44956;52.422;20.818;2023-06-22T01:42:56;49.00;40.25;27.00
59179;PMS7003;44956;52.422;20.818;2023-06-22T01:46:00;48.75;42.50;27.75
59179;PMS7003;44956;52.422;20.818;2023-06-22T01:49:03;43.00;36.75;26.00
59179;PMS7003;44956;52.422;20.818;2023-06-22T01:52:07;49.50;42.25;28.75
59179;PMS7003;44956;52.422;20.818;2023-06-22T01:55:10;46.25;39.00;25.75
59179;PMS7003;44956;52.422;20.818;2023-06-22T01:58:14;44.75;38.25;25.50
59179;PMS7003;44956;52.422;20.818;2023-06-22T02:01:19;40.75;37.00;24.00
59179;PMS7003;44956;52.422;20.818;2023-06-22T02:04:27;45.25;38.50;27.00
59179;PMS7003;44956;52.422;20.818;2023-06-22T02:07:38;47.00;38.75;26.00
59179;PMS7003;44956;52.422;20.818;2023-06-22T02:10:44;46.50;38.75;26.75
59179;PMS7003;44956;52.422;20.818;2023-06-22T02:13:48;40.50;36.50;25.00
59179;PMS7003;44956;52.422;20.818;2023-06-22T02:16:52;45.25;36.75;24.00
59179;PMS7003;44956;52.422;20.818;2023-06-22T02:19:55;43.75;36.75;24.25
59179;PMS7003;44956;52.422;20.818;2023-06-22T02:22:57;48.75;40.75;27.00
59179;PMS7003;44956;52.422;20.818;2023-06-22T02:26:01;47.25;40.25;27.50
59179;PMS7003;44956;52.422;20.818;2023-06-22T02:29:05;48.75;42.25;28.25
59179;PMS7003;44956;52.422;20.818;2023-06-22T02:32:08;52.25;43.50;29.00
59179;PMS7003;44956;52.422;20.818;2023-06-22T02:35:11;52.50;44.00;29.00
59179;PMS7003;44956;52.422;20.818;2023-06-22T02:38:14;52.75;44.75;29.00
59179;PMS7003;44956;52.422;20.818;2023-06-22T02:41:17;51.25;43.75;29.00
59179;PMS7003;44956;52.422;20.818;2023-06-22T02:44:23;56.25;46.25;30.75
59179;PMS7003;44956;52.422;20.818;2023-06-22T02:47:26;59.75;48.00;32.00
59179;PMS7003;44956;52.422;20.818;2023-06-22T02:50:28;56.75;46.25;31.00
59179;PMS7003;44956;52.422;20.818;2023-06-22T02:53:33;54.75;45.00;30.50
59179;PMS7003;44956;52.422;20.818;2023-06-22T02:56:36;60.25;46.25;31.50
59179;PMS7003;44956;52.422;20.818;2023-06-22T02:59:40;59.25;47.75;31.00
59179;PMS7003;44956;52.422;20.818;2023-06-22T03:02:46;51.50;44.00;29.75
59179;PMS7003;44956;52.422;20.818;2023-06-22T03:05:50;56.00;46.50;30.50
59179;PMS7003;44956;52.422;20.818;2023-06-22T03:09:01;55.00;46.75;30.25
59179;PMS7003;44956;52.422;20.818;2023-06-22T03:12:07;58.25;46.50;30.00
59179;PMS7003;44956;52.422;20.818;2023-06-22T03:15:30;62.25;51.25;32.25
59179;PMS7003;44956;52.422;20.818;2023-06-22T03:18:33;65.50;52.25;34.00
59179;PMS7003;44956;52.422;20.818;2023-06-22T03:21:37;60.00;49.50;32.00
59179;PMS7003;44956;52.422;20.818;2023-06-22T03:24:43;65.25;53.75;32.50
59179;PMS7003;44956;52.422;20.818;2023-06-22T03:27:46;60.25;50.00;32.00
59179;PMS7003;44956;52.422;20.818;2023-06-22T03:30:50;61.75;49.50;31.75
59179;PMS7003;44956;52.422;20.818;2023-06-22T03:33:52;59.75;48.50;32.00
59179;PMS7003;44956;52.422;20.818;2023-06-22T03:36:57;61.25;50.00;32.25
59179;PMS7003;44956;52.422;20.818;2023-06-22T03:40:00;56.25;46.25;30.75
59179;PMS7003;44956;52.422;20.818;2023-06-22T03:43:06;59.00;47.50;31.25
59179;PMS7003;44956;52.422;20.818;2023-06-22T03:46:10;56.75;47.00;31.00
59179;PMS7003;44956;52.422;20.818;2023-06-22T03:49:12;57.50;47.75;32.00
59179;PMS7003;44956;52.422;20.818;2023-06-22T03:52:15;59.25;48.00;32.00
59179;PMS7003;44956;52.422;20.818;2023-06-22T03:55:19;57.50;48.00;32.00
59179;PMS7003;44956;52.422;20.818;2023-06-22T03:58:22;56.25;47.75;31.75
59179;PMS7003;44956;52.422;20.818;2023-06-22T04:01:25;58.00;47.50;31.00
59179;PMS7003;44956;52.422;20.818;2023-06-22T04:04:28;59.00;47.75;30.75
59179;PMS7003;44956;52.422;20.818;2023-06-22T04:07:31;60.75;50.00;32.75
59179;PMS7003;44956;52.422;20.818;2023-06-22T04:10:33;56.25;45.50;30.00
59179;PMS7003;44956;52.422;20.818;2023-06-22T04:13:36;56.75;46.75;31.00
59179;PMS7003;44956;52.422;20.818;2023-06-22T04:16:39;55.50;46.75;30.00
59179;PMS7003;44956;52.422;20.818;2023-06-22T04:19:42;62.25;48.50;30.75
59179;PMS7003;44956;52.422;20.818;2023-06-22T04:22:44;54.75;46.00;30.00
59179;PMS7003;44956;52.422;20.818;2023-06-22T04:25:48;51.75;44.00;29.00
59179;PMS7003;44956;52.422;20.818;2023-06-22T04:28:50;52.00;44.00;29.00
59179;PMS7003;44956;52.422;20.818;2023-06-22T04:31:57;49.00;41.25;28.25
59179;PMS7003;44956;52.422;20.818;2023-06-22T04:35:00;51.00;41.50;27.00
59179;PMS7003;44956;52.422;20.818;2023-06-22T04:38:04;49.00;40.25;27.50
59179;PMS7003;44956;52.422;20.818;2023-06-22T04:41:06;51.25;42.75;28.50
59179;PMS7003;44956;52.422;20.818;2023-06-22T04:44:13;48.25;40.50;27.75
59179;PMS7003;44956;52.422;20.818;2023-06-22T04:47:30;42.75;37.25;27.25
59179;PMS7003;44956;52.422;20.818;2023-06-22T04:50:33;47.50;40.50;26.00
59179;PMS7003;44956;52.422;20.818;2023-06-22T04:53:35;47.75;40.00;27.00
59179;PMS7003;44956;52.422;20.818;2023-06-22T04:56:38;46.00;39.25;26.00
59179;PMS7003;44956;52.422;20.818;2023-06-22T04:59:42;46.50;38.00;25.75
59179;PMS7003;44956;52.422;20.818;2023-06-22T05:02:46;42.75;37.00;24.75
59179;PMS7003;44956;52.422;20.818;2023-06-22T05:05:50;45.75;39.25;25.75
59179;PMS7003;44956;52.422;20.818;2023-06-22T05:08:56;45.00;37.50;25.00
59179;PMS7003;44956;52.422;20.818;2023-06-22T05:11:59;41.50;37.00;23.75
59179;PMS7003;44956;52.422;20.818;2023-06-22T05:15:05;41.75;37.00;24.00
59179;PMS7003;44956;52.422;20.818;2023-06-22T05:18:09;40.25;35.50;24.25
59179;PMS7003;44956;52.422;20.818;2023-06-22T05:21:14;35.25;32.75;22.00
59179;PMS7003;44956;52.422;20.818;2023-06-22T05:24:16;41.25;34.25;23.50
59179;PMS7003;44956;52.422;20.818;2023-06-22T05:27:19;40.25;35.75;23.75
59179;PMS7003;44956;52.422;20.818;2023-06-22T05:30:22;39.00;35.00;23.25
59179;PMS7003;44956;52.422;20.818;2023-06-22T05:33:25;40.50;34.00;22.00
59179;PMS7003;44956;52.422;20.818;2023-06-22T05:36:27;32.00;30.50;20.00
59179;PMS7003;44956;52.422;20.818;2023-06-22T05:39:30;37.25;32.75;21.50
59179;PMS7003;44956;52.422;20.818;2023-06-22T05:42:32;39.00;33.25;22.50
59179;PMS7003;44956;52.422;20.818;2023-06-22T05:45:35;38.50;33.75;22.00
59179;PMS7003;44956;52.422;20.818;2023-06-22T05:48:38;39.75;35.00;23.00
59179;PMS7003;44956;52.422;20.818;2023-06-22T05:51:41;34.75;32.00;23.00
59179;PMS7003;44956;52.422;20.818;2023-06-22T05:54:44;31.00;29.50;22.00
59179;PMS7003;44956;52.422;20.818;2023-06-22T05:57:47;35.25;32.50;22.00
59179;PMS7003;44956;52.422;20.818;2023-06-22T06:00:49;34.75;32.50;22.00
59179;PMS7003;44956;52.422;20.818;2023-06-22T06:03:52;31.50;30.25;19.00
59179;PMS7003;44956;52.422;20.818;2023-06-22T06:06:55;30.50;30.00;20.25
59179;PMS7003;44956;52.422;20.818;2023-06-22T06:09:58;33.67;32.00;22.00
59179;PMS7003;44956;52.422;20.818;2023-06-22T06:13:01;33.50;31.00;21.00
59179;PMS7003;44956;52.422;20.818;2023-06-22T06:16:04;32.50;31.00;21.00
59179;PMS7003;44956;52.422;20.818;2023-06-22T06:19:09;35.00;32.50;21.50
59179;PMS7003;44956;52.422;20.818;2023-06-22T06:22:12;30.00;29.00;20.00
59179;PMS7003;44956;52.422;20.818;2023-06-22T06:25:15;36.33;31.33;22.00
59179;PMS7003;44956;52.422;20.818;2023-06-22T06:28:22;30.33;29.67;20.00
59179;PMS7003;44956;52.422;20.818;2023-06-22T06:31:25;28.67;27.67;19.33
59179;PMS7003;44956;52.422;20.818;2023-06-22T06:34:32;26.67;25.67;17.67
59179;PMS7003;44956;52.422;20.818;2023-06-22T06:37:35;25.00;24.00;17.00
59179;PMS7003;44956;52.422;20.818;2023-06-22T06:40:39;24.67;24.33;17.00
59179;PMS7003;44956;52.422;20.818;2023-06-22T06:43:42;25.00;25.00;17.00
59179;PMS7003;44956;52.422;20.818;2023-06-22T06:46:45;22.67;21.67;16.00
59179;PMS7003;44956;52.422;20.818;2023-06-22T06:49:48;22.33;22.33;15.00
59179;PMS7003;44956;52.422;20.818;2023-06-22T06:52:51;20.33;20.33;13.67
59179;PMS7003;44956;52.422;20.818;2023-06-22T06:55:54;18.00;18.00;13.00
59179;PMS7003;44956;52.422;20.818;2023-06-22T06:58:57;18.33;18.33;12.67
59179;PMS7003;44956;52.422;20.818;2023-06-22T07:02:00;18.00;16.00;12.67
59179;PMS7003;44956;52.422;20.818;2023-06-22T07:05:04;17.67;17.67;12.00
59179;PMS7003;44956;52.422;20.818;2023-06-22T07:08:07;18.00;18.00;12.00
59179;PMS7003;44956;52.422;20.818;2023-06-22T07:11:10;18.00;16.33;12.33
59179;PMS7003;44956;52.422;20.818;2023-06-22T07:14:12;18.00;16.00;12.00
59179;PMS7003;44956;52.422;20.818;2023-06-22T07:17:15;17.67;17.33;11.67
59179;PMS7003;44956;52.422;20.818;2023-06-22T07:20:18;18.00;16.33;11.33
59179;PMS7003;44956;52.422;20.818;2023-06-22T07:23:22;16.00;15.00;11.00
59179;PMS7003;44956;52.422;20.818;2023-06-22T07:26:24;16.00;16.00;11.00
59179;PMS7003;44956;52.422;20.818;2023-06-22T07:29:27;16.67;16.00;9.67
59179;PMS7003;44956;52.422;20.818;2023-06-22T07:32:31;15.33;13.67;11.33
59179;PMS7003;44956;52.422;20.818;2023-06-22T07:35:34;14.33;14.33;9.67
59179;PMS7003;44956;52.422;20.818;2023-06-22T07:38:39;14.67;12.67;9.33
59179;PMS7003;44956;52.422;20.818;2023-06-22T07:41:42;13.67;13.33;9.67
59179;PMS7003;44956;52.422;20.818;2023-06-22T07:44:45;13.67;13.00;8.33
59179;PMS7003;44956;52.422;20.818;2023-06-22T07:47:49;12.00;10.00;8.33
59179;PMS7003;44956;52.422;20.818;2023-06-22T07:50:52;12.33;11.67;8.00
59179;PMS7003;44956;52.422;20.818;2023-06-22T07:53:55;11.67;11.67;7.67
59179;PMS7003;44956;52.422;20.818;2023-06-22T07:56:58;12.33;11.33;8.00
59179;PMS7003;44956;52.422;20.818;2023-06-22T08:00:02;11.67;11.67;7.33
59179;PMS7003;44956;52.422;20.818;2023-06-22T08:03:24;8.00;8.00;5.25
59179;PMS7003;44956;52.422;20.818;2023-06-22T08:06:30;10.67;9.33;6.33
59179;PMS7003;44956;52.422;20.818;2023-06-22T08:09:34;9.00;9.00;6.00
59179;PMS7003;44956;52.422;20.818;2023-06-22T08:12:40;9.25;9.25;6.25
59179;PMS7003;44956;52.422;20.818;2023-06-22T08:15:50;11.33;9.67;7.00
59179;PMS7003;44956;52.422;20.818;2023-06-22T08:18:55;9.25;9.25;6.25
59179;PMS7003;44956;52.422;20.818;2023-06-22T08:21:59;7.50;7.50;5.50
59179;PMS7003;44956;52.422;20.818;2023-06-22T08:25:02;7.00;7.00;5.00
59179;PMS7003;44956;52.422;20.818;2023-06-22T08:28:06;9.00;8.50;6.25
59179;PMS7003;44956;52.422;20.818;2023-06-22T08:31:09;9.25;9.25;6.50
59179;PMS7003;44956;52.422;20.818;2023-06-22T08:34:14;9.00;8.00;6.33
59179;PMS7003;44956;52.422;20.818;2023-06-22T08:37:19;7.25;7.00;5.25
59179;PMS7003;44956;52.422;20.818;2023-06-22T08:40:22;11.25;9.50;7.25
59179;PMS7003;44956;52.422;20.818;2023-06-22T08:43:26;14.00;12.00;6.00
59179;PMS7003;44956;52.422;20.818;2023-06-22T08:46:29;12.25;11.25;7.00
59179;PMS7003;44956;52.422;20.818;2023-06-22T08:49:35;11.50;11.50;8.25
59179;PMS7003;44956;52.422;20.818;2023-06-22T08:52:39;10.50;10.00;8.00
59179;PMS7003;44956;52.422;20.818;2023-06-22T08:55:43;10.25;10.25;8.00
59179;PMS7003;44956;52.422;20.818;2023-06-22T08:58:47;11.75;10.25;7.75
59179;PMS7003;44956;52.422;20.818;2023-06-22T09:01:50;12.00;12.00;8.50
59179;PMS7003;44956;52.422;20.818;2023-06-22T09:04:57;12.00;12.00;8.50
59179;PMS7003;44956;52.422;20.818;2023-06-22T09:08:01;8.00;8.00;7.00
59179;PMS7003;44956;52.422;20.818;2023-06-22T09:11:03;11.00;11.00;8.50
59179;PMS7003;44956;52.422;20.818;2023-06-22T09:14:07;12.50;11.75;8.00
59179;PMS7003;44956;52.422;20.818;2023-06-22T09:17:10;9.25;9.25;7.00
59179;PMS7003;44956;52.422;20.818;2023-06-22T09:20:14;10.00;10.00;8.75
59179;PMS7003;44956;52.422;20.818;2023-06-22T09:23:17;13.25;13.00;8.00
59179;PMS7003;44956;52.422;20.818;2023-06-22T09:26:20;8.60;8.60;5.00
59179;PMS7003;44956;52.422;20.818;2023-06-22T09:29:24;12.75;11.00;8.00
59179;PMS7003;44956;52.422;20.818;2023-06-22T09:32:27;14.00;12.50;9.00
59179;PMS7003;44956;52.422;20.818;2023-06-22T09:35:30;11.25;11.25;8.00
59179;PMS7003;44956;52.422;20.818;2023-06-22T09:38:36;12.75;11.75;8.75
59179;PMS7003;44956;52.422;20.818;2023-06-22T09:41:39;9.75;9.75;8.00
59179;PMS7003;44956;52.422;20.818;2023-06-22T09:44:42;14.50;10.00;7.00
59179;PMS7003;44956;52.422;20.818;2023-06-22T09:47:45;10.75;9.75;6.75
59179;PMS7003;44956;52.422;20.818;2023-06-22T09:50:48;14.00;12.75;10.00
59179;PMS7003;44956;52.422;20.818;2023-06-22T09:53:51;13.00;12.75;10.00
59179;PMS7003;44956;52.422;20.818;2023-06-22T09:56:54;13.00;13.00;9.75
59179;PMS7003;44956;52.422;20.818;2023-06-22T09:59:57;15.25;15.25;10.25
59179;PMS7003;44956;52.422;20.818;2023-06-22T10:03:00;13.00;12.75;9.00
59179;PMS7003;44956;52.422;20.818;2023-06-22T10:06:03;12.00;12.00;9.75
59179;PMS7003;44956;52.422;20.818;2023-06-22T10:09:06;13.50;13.50;10.00
59179;PMS7003;44956;52.422;20.818;2023-06-22T10:12:10;12.25;12.25;9.25
59179;PMS7003;44956;52.422;20.818;2023-06-22T10:15:13;12.50;11.75;8.75
59179;PMS7003;44956;52.422;20.818;2023-06-22T10:18:17;13.75;12.00;9.00
59179;PMS7003;44956;52.422;20.818;2023-06-22T10:21:20;13.50;12.25;10.00
59179;PMS7003;44956;52.422;20.818;2023-06-22T10:24:29;14.50;13.00;9.75
59179;PMS7003;44956;52.422;20.818;2023-06-22T10:27:32;15.50;14.00;9.50
59179;PMS7003;44956;52.422;20.818;2023-06-22T10:30:35;14.75;14.50;9.25
59179;PMS7003;44956;52.422;20.818;2023-06-22T10:33:38;10.60;10.00;8.20
59179;PMS7003;44956;52.422;20.818;2023-06-22T10:36:43;11.40;11.40;9.20
59179;PMS7003;44956;52.422;20.818;2023-06-22T10:39:48;12.80;12.80;10.20
59179;PMS7003;44956;52.422;20.818;2023-06-22T10:42:51;14.25;14.25;10.00
59179;PMS7003;44956;52.422;20.818;2023-06-22T10:45:54;13.60;13.60;10.00
59179;PMS7003;44956;52.422;20.818;2023-06-22T10:48:56;11.00;11.00;8.00
59179;PMS7003;44956;52.422;20.818;2023-06-22T10:52:01;12.00;12.00;9.00
59179;PMS7003;44956;52.422;20.818;2023-06-22T10:55:03;13.25;13.25;9.75
59179;PMS7003;44956;52.422;20.818;2023-06-22T10:58:06;13.00;11.50;9.00
59179;PMS7003;44956;52.422;20.818;2023-06-22T11:01:14;13.00;11.00;9.00
59179;PMS7003;44956;52.422;20.818;2023-06-22T11:04:35;13.75;13.75;9.50
59179;PMS7003;44956;52.422;20.818;2023-06-22T11:07:42;13.50;13.50;10.50
59179;PMS7003;44956;52.422;20.818;2023-06-22T11:10:51;13.25;12.50;10.00
59179;PMS7003;44956;52.422;20.818;2023-06-22T11:13:54;14.25;14.25;11.00
59179;PMS7003;44956;52.422;20.818;2023-06-22T11:16:57;14.60;13.80;10.00
59179;PMS7003;44956;52.422;20.818;2023-06-22T11:19:59;13.75;13.75;9.00
59179;PMS7003;44956;52.422;20.818;2023-06-22T11:23:02;15.00;14.50;10.75
59179;PMS7003;44956;52.422;20.818;2023-06-22T11:26:05;12.75;12.75;9.25
59179;PMS7003;44956;52.422;20.818;2023-06-22T11:29:08;13.00;11.50;9.75
59179;PMS7003;44956;52.422;20.818;2023-06-22T11:32:24;18.50;16.75;12.25
59179;PMS7003;44956;52.422;20.818;2023-06-22T11:35:27;17.50;16.00;11.00
59179;PMS7003;44956;52.422;20.818;2023-06-22T11:38:30;14.50;13.25;10.75
59179;PMS7003;44956;52.422;20.818;2023-06-22T11:41:33;15.50;14.00;10.00
59179;PMS7003;44956;52.422;20.818;2023-06-22T11:44:36;13.75;13.75;11.25
59179;PMS7003;44956;52.422;20.818;2023-06-22T11:47:39;14.75;14.75;10.25
59179;PMS7003;44956;52.422;20.818;2023-06-22T11:50:41;13.00;13.00;9.50
59179;PMS7003;44956;52.422;20.818;2023-06-22T11:53:44;14.75;14.75;9.75
59179;PMS7003;44956;52.422;20.818;2023-06-22T11:56:47;12.75;12.75;9.50
59179;PMS7003;44956;52.422;20.818;2023-06-22T11:59:50;13.75;13.75;11.00
59179;PMS7003;44956;52.422;20.818;2023-06-22T12:02:52;13.00;13.00;11.50
59179;PMS7003;44956;52.422;20.818;2023-06-22T12:05:55;17.75;17.00;12.25
59179;PMS7003;44956;52.422;20.818;2023-06-22T12:08:58;14.75;13.50;10.50
59179;PMS7003;44956;52.422;20.818;2023-06-22T12:12:01;16.00;15.50;12.00
59179;PMS7003;44956;52.422;20.818;2023-06-22T12:15:04;18.00;15.75;10.00
59179;PMS7003;44956;52.422;20.818;2023-06-22T12:18:08;16.75;15.00;11.00
59179;PMS7003;44956;52.422;20.818;2023-06-22T12:21:11;17.00;15.75;11.50
59179;PMS7003;44956;52.422;20.818;2023-06-22T12:24:14;16.75;16.75;11.50
59179;PMS7003;44956;52.422;20.818;2023-06-22T12:27:16;14.75;14.75;11.00
59179;PMS7003;44956;52.422;20.818;2023-06-22T12:30:20;17.25;17.25;12.50
59179;PMS7003;44956;52.422;20.818;2023-06-22T12:33:23;16.00;14.75;11.50
59179;PMS7003;44956;52.422;20.818;2023-06-22T12:36:26;17.25;16.75;12.50
59179;PMS7003;44956;52.422;20.818;2023-06-22T12:39:28;14.50;14.50;11.00
59179;PMS7003;44956;52.422;20.818;2023-06-22T12:42:31;14.50;14.50;11.25
59179;PMS7003;44956;52.422;20.818;2023-06-22T12:45:35;15.75;15.75;12.00
59179;PMS7003;44956;52.422;20.818;2023-06-22T12:48:38;15.75;15.75;11.50
59179;PMS7003;44956;52.422;20.818;2023-06-22T12:51:45;15.25;13.25;10.50
59179;PMS7003;44956;52.422;20.818;2023-06-22T12:54:48;19.25;19.25;13.25
59179;PMS7003;44956;52.422;20.818;2023-06-22T12:57:57;16.25;16.25;12.00
59179;PMS7003;44956;52.422;20.818;2023-06-22T13:01:00;16.50;15.00;11.50
59179;PMS7003;44956;52.422;20.818;2023-06-22T13:04:03;14.75;13.75;11.50
59179;PMS7003;44956;52.422;20.818;2023-06-22T13:07:06;15.00;15.00;10.50
59179;PMS7003;44956;52.422;20.818;2023-06-22T13:10:24;15.50;15.50;12.00
59179;PMS7003;44956;52.422;20.818;2023-06-22T13:13:26;17.50;16.00;13.00
59179;PMS7003;44956;52.422;20.818;2023-06-22T13:16:29;16.00;15.75;10.75
59179;PMS7003;44956;52.422;20.818;2023-06-22T13:19:32;16.50;15.75;11.75
59179;PMS7003;44956;52.422;20.818;2023-06-22T13:22:35;19.25;18.00;14.25
59179;PMS7003;44956;52.422;20.818;2023-06-22T13:25:42;17.50;15.00;11.25
59179;PMS7003;44956;52.422;20.818;2023-06-22T13:28:45;16.00;16.00;13.00
59179;PMS7003;44956;52.422;20.818;2023-06-22T13:31:48;17.50;16.25;10.75
59179;PMS7003;44956;52.422;20.818;2023-06-22T13:34:52;14.25;14.25;11.50
59179;PMS7003;44956;52.422;20.818;2023-06-22T13:37:55;15.00;15.00;10.75
59179;PMS7003;44956;52.422;20.818;2023-06-22T13:40:57;18.75;17.75;13.75
59179;PMS7003;44956;52.422;20.818;2023-06-22T13:44:02;10.00;10.00;6.50
59179;PMS7003;44956;52.422;20.818;2023-06-22T13:47:04;16.75;16.00;12.25
59179;PMS7003;44956;52.422;20.818;2023-06-22T13:50:08;18.25;18.25;13.00
59179;PMS7003;44956;52.422;20.818;2023-06-22T13:53:11;17.75;15.50;12.25
59179;PMS7003;44956;52.422;20.818;2023-06-22T13:56:14;18.50;18.50;12.25
59179;PMS7003;44956;52.422;20.818;2023-06-22T13:59:16;15.00;15.00;12.00
59179;PMS7003;44956;52.422;20.818;2023-06-22T14:02:19;15.75;15.75;11.25
59179;PMS7003;44956;52.422;20.818;2023-06-22T14:05:21;14.25;14.25;9.50
59179;PMS7003;44956;52.422;20.818;2023-06-22T14:08:24;14.00;14.00;10.25
59179;PMS7003;44956;52.422;20.818;2023-06-22T14:11:42;12.75;12.75;8.50
59179;PMS7003;44956;52.422;20.818;2023-06-22T14:14:45;14.50;14.50;11.00
59179;PMS7003;44956;52.422;20.818;2023-06-22T14:17:48;15.00;13.25;9.75
59179;PMS7003;44956;52.422;20.818;2023-06-22T14:20:51;16.50;15.00;10.00
59179;PMS7003;44956;52.422;20.818;2023-06-22T14:23:53;14.50;14.50;10.00
59179;PMS7003;44956;52.422;20.818;2023-06-22T14:26:56;16.75;16.75;11.00
59179;PMS7003;44956;52.422;20.818;2023-06-22T14:29:59;14.50;14.50;10.25
59179;PMS7003;44956;52.422;20.818;2023-06-22T14:33:03;12.75;11.50;7.50
59179;PMS7003;44956;52.422;20.818;2023-06-22T14:36:05;17.50;15.00;10.00
59179;PMS7003;44956;52.422;20.818;2023-06-22T14:39:10;13.25;13.25;9.00
59179;PMS7003;44956;52.422;20.818;2023-06-22T14:42:13;16.50;16.50;12.00
59179;PMS7003;44956;52.422;20.818;2023-06-22T14:45:16;13.00;13.00;9.50
59179;PMS7003;44956;52.422;20.818;2023-06-22T14:48:18;15.25;15.00;10.00
59179;PMS7003;44956;52.422;20.818;2023-06-22T14:51:21;13.50;13.00;10.75
59179;PMS7003;44956;52.422;20.818;2023-06-22T14:54:24;15.00;14.50;11.00
59179;PMS7003;44956;52.422;20.818;2023-06-22T14:57:26;14.75;13.00;8.50
59179;PMS7003;44956;52.422;20.818;2023-06-22T15:00:29;15.00;14.00;10.00
59179;PMS7003;44956;52.422;20.818;2023-06-22T15:03:33;12.50;12.25;9.50
59179;PMS7003;44956;52.422;20.818;2023-06-22T15:06:37;13.00;13.00;10.00
59179;PMS7003;44956;52.422;20.818;2023-06-22T15:09:41;14.00;14.00;9.00
59179;PMS7003;44956;52.422;20.818;2023-06-22T15:12:44;12.25;12.00;9.00
59179;PMS7003;44956;52.422;20.818;2023-06-22T15:15:47;14.50;13.75;10.00
59179;PMS7003;44956;52.422;20.818;2023-06-22T15:18:50;13.50;12.25;9.00
59179;PMS7003;44956;52.422;20.818;2023-06-22T15:21:53;13.00;12.00;8.50
59179;PMS7003;44956;52.422;20.818;2023-06-22T15:24:56;13.50;13.50;9.50
59179;PMS7003;44956;52.422;20.818;2023-06-22T15:28:00;14.50;13.75;10.00
59179;PMS7003;44956;52.422;20.818;2023-06-22T15:31:03;14.00;14.00;10.00
59179;PMS7003;44956;52.422;20.818;2023-06-22T15:34:07;13.50;12.50;8.25
59179;PMS7003;44956;52.422;20.818;2023-06-22T15:37:10;15.00;14.00;9.00
59179;PMS7003;44956;52.422;20.818;2023-06-22T15:40:13;13.25;13.25;9.75
59179;PMS7003;44956;52.422;20.818;2023-06-22T15:43:15;14.00;13.25;9.50
59179;PMS7003;44956;52.422;20.818;2023-06-22T15:46:18;13.25;13.25;9.00
59179;PMS7003;44956;52.422;20.818;2023-06-22T15:49:21;13.25;13.25;8.00
59179;PMS7003;44956;52.422;20.818;2023-06-22T15:52:24;15.00;15.00;10.00
59179;PMS7003;44956;52.422;20.818;2023-06-22T15:55:26;13.00;13.00;8.25
59179;PMS7003;44956;52.422;20.818;2023-06-22T15:58:30;11.75;11.00;8.00
59179;PMS7003;44956;52.422;20.818;2023-06-22T16:01:33;12.00;12.00;8.00
59179;PMS7003;44956;52.422;20.818;2023-06-22T16:04:36;11.67;11.67;9.00
59179;PMS7003;44956;52.422;20.818;2023-06-22T16:07:38;14.67;13.67;8.33
59179;PMS7003;44956;52.422;20.818;2023-06-22T16:10:42;11.75;11.25;8.00
59179;PMS7003;44956;52.422;20.818;2023-06-22T16:13:44;14.00;14.00;9.67
59179;PMS7003;44956;52.422;20.818;2023-06-22T16:16:48;13.00;12.00;8.67
59179;PMS7003;44956;52.422;20.818;2023-06-22T16:19:51;12.00;12.00;8.33
59179;PMS7003;44956;52.422;20.818;2023-06-22T16:22:56;13.00;13.00;8.33
59179;PMS7003;44956;52.422;20.818;2023-06-22T16:25:59;11.00;11.00;9.00
59179;PMS7003;44956;52.422;20.818;2023-06-22T16:29:02;15.00;14.67;10.67
59179;PMS7003;44956;52.422;20.818;2023-06-22T16:32:08;14.00;13.33;9.00
59179;PMS7003;44956;52.422;20.818;2023-06-22T16:35:11;15.00;14.00;9.00
59179;PMS7003;44956;52.422;20.818;2023-06-22T16:38:14;12.67;12.67;9.00
59179;PMS7003;44956;52.422;20.818;2023-06-22T16:41:16;11.33;10.00;7.00
59179;PMS7003;44956;52.422;20.818;2023-06-22T16:44:20;13.00;12.00;9.00
59179;PMS7003;44956;52.422;20.818;2023-06-22T16:47:23;16.00;13.00;11.00
59179;PMS7003;44956;52.422;20.818;2023-06-22T16:50:25;12.67;12.67;9.00
59179;PMS7003;44956;52.422;20.818;2023-06-22T16:53:29;14.00;13.67;10.00
59179;PMS7003;44956;52.422;20.818;2023-06-22T16:56:32;11.33;11.00;9.00
59179;PMS7003;44956;52.422;20.818;2023-06-22T16:59:35;12.00;12.00;9.00
59179;PMS7003;44956;52.422;20.818;2023-06-22T17:05:56;14.67;14.67;9.67
59179;PMS7003;44956;52.422;20.818;2023-06-22T17:09:03;14.67;13.67;9.33
59179;PMS7003;44956;52.422;20.818;2023-06-22T17:12:08;17.00;15.00;9.00
59179;PMS7003;44956;52.422;20.818;2023-06-22T17:15:11;7.00;7.00;5.67